Time;durP1;ratioP1;P1;durP2;ratioP2;P2;SDS_P1;SDS_P2;PMS_P1;PMS_P2;Temp;Humidity;BMP_temperature;BMP_pressure;BME280_temperature;BME280_humidity;BME280_pressure;Samples;Min_cycle;Max_cycle;Signal;HPM_P1;HPM_P2
2022/05/21 00:00:37;;;;;;;0.70;0.70;;;21.40;99.90;;;;;;5091779;27;45174;-69
2022/05/21 00:03:05;;;;;;;1.45;0.85;;;21.40;99.80;;;;;;5090844;27;45183;-69
2022/05/21 00:05:34;;;;;;;0.73;0.73;;;21.40;99.80;;;;;;5095469;27;46597;-69
2022/05/21 00:08:01;;;;;;;1.00;0.88;;;21.40;99.70;;;;;;5082938;27;45462;-69
2022/05/21 00:10:29;;;;;;;1.75;0.90;;;21.40;99.50;;;;;;5098391;27;45303;-69
2022/05/21 00:12:56;;;;;;;0.90;0.77;;;21.40;99.50;;;;;;5081838;27;45266;-69
2022/05/21 00:15:27;;;;;;;1.00;0.80;;;21.40;99.60;;;;;;5094788;27;46647;-69
2022/05/21 00:17:54;;;;;;;0.80;0.68;;;21.40;99.50;;;;;;5091885;27;45913;-69
2022/05/21 00:23:11;;;;;;;0.55;0.55;;;21.40;99.40;;;;;;5098180;27;45222;-69
2022/05/21 00:25:38;;;;;;;0.75;0.70;;;21.40;99.40;;;;;;5090550;27;48061;-69
2022/05/21 00:28:05;;;;;;;0.75;0.75;;;21.40;99.30;;;;;;5083181;27;45292;-69
2022/05/21 00:30:33;;;;;;;0.68;0.68;;;21.40;99.30;;;;;;5087150;27;45353;-69
2022/05/21 00:33:00;;;;;;;0.52;0.52;;;21.40;99.40;;;;;;5099457;27;45319;-69
2022/05/21 00:35:28;;;;;;;0.80;0.80;;;21.40;99.30;;;;;;5091216;27;46416;-69
2022/05/21 00:37:55;;;;;;;0.65;0.63;;;21.40;99.10;;;;;;5098953;27;46736;-69
2022/05/21 00:40:21;;;;;;;0.85;0.75;;;21.40;99.10;;;;;;5088440;27;45796;-69
2022/05/21 00:42:48;;;;;;;0.70;0.68;;;21.40;99.00;;;;;;5100007;27;45291;-69
2022/05/21 00:45:16;;;;;;;0.80;0.80;;;21.40;99.20;;;;;;5091468;27;46203;-69
2022/05/21 00:47:44;;;;;;;1.08;0.90;;;21.30;99.10;;;;;;5097090;27;45454;-69
2022/05/21 00:50:15;;;;;;;0.55;0.55;;;21.40;99.00;;;;;;5093159;27;45159;-69
2022/05/21 00:52:42;;;;;;;0.70;0.70;;;21.40;98.80;;;;;;5097465;27;45182;-69
2022/05/21 00:55:14;;;;;;;1.13;0.75;;;21.40;98.80;;;;;;5092551;27;46172;-69
2022/05/21 00:57:44;;;;;;;1.00;0.57;;;21.60;98.80;;;;;;5083677;27;45485;-69
2022/05/21 01:00:14;;;;;;;0.80;0.80;;;21.30;98.90;;;;;;5084783;27;45310;-69
2022/05/21 01:02:48;;;;;;;1.25;0.73;;;21.40;99.10;;;;;;5081349;27;45351;-69
2022/05/21 01:05:18;;;;;;;1.10;0.57;;;21.40;99.00;;;;;;5098041;27;45423;-68
2022/05/21 01:07:46;;;;;;;1.08;0.90;;;21.40;98.80;;;;;;5082327;27;45449;-68
2022/05/21 01:10:18;;;;;;;0.70;0.70;;;21.40;98.80;;;;;;5103872;27;45259;-68
2022/05/21 01:12:48;;;;;;;1.00;0.82;;;21.40;99.20;;;;;;5086760;27;45479;-68
2022/05/21 01:15:30;;;;;;;1.73;0.90;;;21.40;98.70;;;;;;5098698;27;46425;-68
2022/05/21 01:17:57;;;;;;;1.38;0.70;;;21.40;98.50;;;;;;5087357;27;45623;-68
2022/05/21 01:20:37;;;;;;;0.95;0.85;;;21.40;98.60;;;;;;5085595;27;45152;-69
2022/05/21 01:23:06;;;;;;;0.90;0.90;;;21.40;98.50;;;;;;5092293;27;45419;-68
2022/05/21 01:25:35;;;;;;;1.75;0.77;;;21.40;98.60;;;;;;5069579;28;46406;-68
2022/05/21 01:28:03;;;;;;;0.70;0.70;;;21.40;98.50;;;;;;5091496;27;45248;-68
2022/05/21 01:30:34;;;;;;;1.33;0.90;;;21.40;98.40;;;;;;5092436;27;45625;-68
2022/05/21 01:33:05;;;;;;;0.95;0.70;;;21.40;98.40;;;;;;5096186;27;45264;-68
2022/05/21 01:35:32;;;;;;;1.23;1.00;;;21.40;98.40;;;;;;5095309;27;46371;-68
2022/05/21 01:38:00;;;;;;;1.35;1.13;;;21.40;98.30;;;;;;5091383;27;46005;-68
2022/05/21 01:40:29;;;;;;;1.25;0.90;;;21.40;98.40;;;;;;5090740;27;45191;-68
2022/05/21 01:45:40;;;;;;;1.30;1.10;;;21.40;98.40;;;;;;5090140;27;45384;-68
2022/05/21 01:48:08;;;;;;;1.38;1.02;;;21.30;98.20;;;;;;5077490;27;45311;-68
2022/05/21 01:50:37;;;;;;;1.00;0.90;;;21.30;98.00;;;;;;5092742;27;45226;-68
2022/05/21 01:53:04;;;;;;;1.30;0.95;;;21.30;97.90;;;;;;5096802;27;45308;-68
2022/05/21 01:55:33;;;;;;;1.02;0.73;;;21.30;97.80;;;;;;5089026;27;46227;-68
2022/05/21 01:58:00;;;;;;;0.77;0.77;;;21.30;97.80;;;;;;5092216;27;45166;-68
2022/05/21 02:00:27;;;;;;;1.33;1.00;;;21.30;97.60;;;;;;5095607;27;45307;-68
2022/05/21 02:02:53;;;;;;;1.17;0.90;;;21.30;97.70;;;;;;5098249;27;45327;-68
2022/05/21 02:05:20;;;;;;;1.27;0.90;;;21.40;98.30;;;;;;5090844;27;46754;-68
2022/05/21 02:07:47;;;;;;;1.52;0.90;;;21.30;97.90;;;;;;5068082;28;45449;-68
2022/05/21 02:10:14;;;;;;;1.42;0.88;;;21.40;97.90;;;;;;5094559;27;45379;-68
2022/05/21 02:12:42;;;;;;;1.05;0.70;;;21.40;97.80;;;;;;5082488;27;45505;-68
2022/05/21 02:15:10;;;;;;;2.65;1.00;;;21.40;97.90;;;;;;5098444;27;45283;-68
2022/05/21 02:17:37;;;;;;;1.85;0.88;;;21.40;97.80;;;;;;5093576;27;45435;-68
2022/05/21 02:20:05;;;;;;;1.55;0.85;;;21.40;97.70;;;;;;5094240;27;45303;-68
2022/05/21 02:22:32;;;;;;;0.95;0.75;;;21.40;97.70;;;;;;5094994;27;45266;-68
2022/05/21 02:24:58;;;;;;;1.40;0.73;;;21.40;97.60;;;;;;5091966;27;45204;-68
2022/05/21 02:27:25;;;;;;;1.38;0.50;;;21.40;97.50;;;;;;5101222;27;45432;-68
2022/05/21 02:29:53;;;;;;;1.00;0.80;;;21.40;97.50;;;;;;5096482;27;45313;-68
2022/05/21 02:32:20;;;;;;;0.88;0.70;;;21.40;97.40;;;;;;5097734;27;45370;-68
2022/05/21 02:34:47;;;;;;;2.28;0.75;;;21.40;97.30;;;;;;5099110;27;46916;-68
2022/05/21 02:39:58;;;;;;;0.65;0.63;;;21.40;97.50;;;;;;5098043;27;45258;-67
2022/05/21 02:45:14;;;;;;;0.90;0.70;;;21.30;97.40;;;;;;5096593;27;45333;-68
2022/05/21 02:47:41;;;;;;;0.77;0.65;;;21.30;97.20;;;;;;5096937;27;45202;-67
2022/05/21 02:50:09;;;;;;;0.73;0.50;;;21.30;97.00;;;;;;5091889;27;45470;-68
2022/05/21 02:52:36;;;;;;;0.50;0.50;;;21.30;96.90;;;;;;5096755;27;45416;-67
2022/05/21 02:55:04;;;;;;;0.85;0.68;;;21.30;97.10;;;;;;5091274;27;45407;-68
2022/05/21 02:57:31;;;;;;;0.60;0.55;;;21.30;97.00;;;;;;5087148;27;45346;-68
2022/05/21 03:00:01;;;;;;;1.00;0.73;;;21.30;96.80;;;;;;5081066;27;45291;-67
2022/05/21 03:02:29;;;;;;;1.27;0.60;;;21.30;96.60;;;;;;5090749;27;45267;-68
2022/05/21 03:04:56;;;;;;;0.60;0.45;;;21.30;96.90;;;;;;5087253;27;45248;-68
2022/05/21 03:07:23;;;;;;;1.67;0.55;;;21.30;96.90;;;;;;5080572;27;45187;-68
2022/05/21 03:12:34;;;;;;;0.70;0.55;;;21.30;96.90;;;;;;5078839;27;45329;-68
2022/05/21 03:15:01;;;;;;;0.93;0.70;;;21.30;96.80;;;;;;5096054;27;47222;-67
2022/05/21 03:17:29;;;;;;;1.00;0.40;;;21.40;96.80;;;;;;5096088;27;45295;-69
2022/05/21 03:19:56;;;;;;;1.77;0.65;;;21.40;96.80;;;;;;5096577;27;45292;-68
2022/05/21 03:22:23;;;;;;;1.40;0.68;;;21.40;96.60;;;;;;5096082;27;45248;-68
2022/05/21 03:24:49;;;;;;;0.80;0.60;;;21.40;96.70;;;;;;5094155;27;46292;-68
2022/05/21 03:27:16;;;;;;;1.30;0.60;;;21.30;96.50;;;;;;5101518;27;45570;-67
2022/05/21 03:29:43;;;;;;;0.90;0.60;;;21.30;96.50;;;;;;5092262;27;45339;-68
2022/05/21 03:32:10;;;;;;;1.80;0.90;;;21.40;96.40;;;;;;5097640;27;45676;-68
2022/05/21 03:34:38;;;;;;;1.08;0.40;;;21.30;96.30;;;;;;5096836;27;45290;-68
2022/05/21 03:37:05;;;;;;;1.20;0.57;;;21.30;96.20;;;;;;5088957;27;45506;-68
2022/05/21 03:39:32;;;;;;;1.15;0.60;;;21.40;96.30;;;;;;5096155;27;45306;-68
2022/05/21 03:41:59;;;;;;;0.82;0.63;;;21.30;96.10;;;;;;5096551;27;45424;-68
2022/05/21 03:44:27;;;;;;;0.93;0.60;;;21.30;96.30;;;;;;5101862;27;46186;-68
2022/05/21 03:46:56;;;;;;;1.05;0.60;;;21.30;96.40;;;;;;5090033;27;45541;-68
2022/05/21 03:49:23;;;;;;;0.60;0.50;;;21.30;96.30;;;;;;5090915;27;45335;-68
2022/05/21 03:51:51;;;;;;;0.82;0.60;;;21.30;96.30;;;;;;5087299;27;45313;-68
2022/05/21 03:54:18;;;;;;;1.48;0.52;;;21.30;96.10;;;;;;5096125;27;45328;-68
2022/05/21 03:56:45;;;;;;;1.65;0.60;;;21.20;95.70;;;;;;5082910;27;45257;-68
2022/05/21 03:59:12;;;;;;;1.48;0.65;;;21.30;95.70;;;;;;5088060;27;45339;-68
2022/05/21 04:01:41;;;;;;;1.88;0.80;;;21.30;95.50;;;;;;5081267;27;45355;-68
2022/05/21 04:04:08;;;;;;;1.48;0.70;;;21.20;95.20;;;;;;5087943;27;45210;-68
2022/05/21 04:06:35;;;;;;;0.50;0.45;;;21.30;95.40;;;;;;5084921;27;45291;-67
2022/05/21 04:09:03;;;;;;;1.23;0.43;;;21.30;95.80;;;;;;5095522;27;45300;-68
2022/05/21 04:11:30;;;;;;;0.68;0.47;;;21.30;95.80;;;;;;5092767;27;45192;-68
2022/05/21 04:13:57;;;;;;;0.77;0.60;;;21.30;95.80;;;;;;5090306;27;45190;-68
2022/05/21 04:16:24;;;;;;;0.45;0.40;;;21.30;95.80;;;;;;5281058;22;45930;-68
2022/05/21 04:18:51;;;;;;;0.65;0.52;;;21.30;95.60;;;;;;5071004;28;45207;-68
2022/05/21 04:21:17;;;;;;;0.98;0.68;;;21.30;95.60;;;;;;5080862;28;45225;-68
2022/05/21 04:23:44;;;;;;;0.55;0.55;;;21.30;95.60;;;;;;5069069;28;48640;-68
2022/05/21 04:26:13;;;;;;;0.40;0.40;;;21.30;95.50;;;;;;5059149;28;45471;-68
2022/05/21 04:28:39;;;;;;;1.67;0.77;;;21.30;95.40;;;;;;5064270;28;45257;-68
2022/05/21 04:31:06;;;;;;;1.15;0.57;;;21.40;95.40;;;;;;5070193;28;45850;-68
2022/05/21 04:33:33;;;;;;;0.50;0.50;;;21.30;95.30;;;;;;5073354;28;46224;-68
2022/05/21 04:38:44;;;;;;;1.35;0.68;;;21.30;95.20;;;;;;5072793;28;45546;-68
2022/05/21 04:41:12;;;;;;;2.30;0.70;;;21.30;95.10;;;;;;5076780;28;45257;-68
2022/05/21 04:43:39;;;;;;;0.77;0.50;;;21.30;95.00;;;;;;5062251;28;46520;-68
2022/05/21 04:46:06;;;;;;;0.73;0.55;;;21.30;95.00;;;;;;5074043;28;45230;-68
2022/05/21 04:48:33;;;;;;;1.02;0.65;;;21.30;94.90;;;;;;5076671;28;45336;-68
2022/05/21 04:51:02;;;;;;;1.30;0.63;;;21.30;95.20;;;;;;5069612;28;45390;-68
2022/05/21 04:53:30;;;;;;;1.58;0.60;;;21.30;94.90;;;;;;5074725;28;45304;-68
2022/05/21 04:55:56;;;;;;;1.15;0.73;;;21.30;95.10;;;;;;5064475;28;45358;-68
2022/05/21 04:58:25;;;;;;;1.73;0.63;;;21.30;95.00;;;;;;5066435;28;45239;-68
2022/05/21 05:00:52;;;;;;;1.58;0.77;;;21.30;94.50;;;;;;5066786;28;46390;-68
2022/05/21 05:03:19;;;;;;;1.70;0.73;;;21.30;94.60;;;;;;5071800;28;45316;-68
2022/05/21 05:05:47;;;;;;;1.45;0.50;;;21.30;94.50;;;;;;5063672;28;45465;-69
2022/05/21 05:08:15;;;;;;;1.52;0.57;;;21.30;94.60;;;;;;5075395;28;45324;-68
2022/05/21 05:10:43;;;;;;;1.15;0.60;;;21.30;94.50;;;;;;5071122;28;45457;-69
2022/05/21 05:13:10;;;;;;;1.83;0.80;;;21.30;95.20;;;;;;5067507;28;46790;-69
2022/05/21 05:15:38;;;;;;;1.90;0.70;;;21.30;95.10;;;;;;5074701;28;45248;-69
2022/05/21 05:18:08;;;;;;;1.75;0.80;;;21.30;94.90;;;;;;5070193;28;45342;-69
2022/05/21 05:20:37;;;;;;;1.13;0.70;;;21.30;94.90;;;;;;5065908;28;45771;-69
2022/05/21 05:23:05;;;;;;;1.92;0.60;;;21.20;94.70;;;;;;5076263;28;46435;-69
2022/05/21 05:25:32;;;;;;;1.83;0.68;;;21.30;94.70;;;;;;5064332;28;45266;-69
2022/05/21 05:27:59;;;;;;;1.30;0.60;;;21.30;94.60;;;;;;5081137;28;45284;-69
2022/05/21 05:30:27;;;;;;;1.73;0.80;;;21.30;94.60;;;;;;5073024;28;45207;-69
2022/05/21 05:32:55;;;;;;;1.00;0.60;;;21.30;94.50;;;;;;5076171;28;45247;-68
2022/05/21 05:35:23;;;;;;;0.73;0.73;;;21.30;94.60;;;;;;5073739;28;45195;-68
2022/05/21 05:37:50;;;;;;;1.42;0.80;;;21.30;94.60;;;;;;5066380;28;45330;-69
2022/05/21 05:40:20;;;;;;;1.60;0.80;;;21.30;94.50;;;;;;5072252;28;45398;-69
2022/05/21 05:42:48;;;;;;;1.15;0.60;;;21.30;94.50;;;;;;5075941;28;46164;-69
2022/05/21 05:45:16;;;;;;;1.83;0.60;;;21.30;94.50;;;;;;5083452;28;45707;-69
2022/05/21 05:47:43;;;;;;;1.25;0.70;;;21.30;94.50;;;;;;5078630;28;45615;-69
2022/05/21 05:50:12;;;;;;;1.77;0.77;;;21.30;94.50;;;;;;5068800;28;45472;-69
2022/05/21 05:52:39;;;;;;;1.17;0.70;;;21.30;94.50;;;;;;5079072;28;45229;-69
2022/05/21 05:55:07;;;;;;;2.38;0.90;;;21.30;94.40;;;;;;5073201;28;45621;-68
2022/05/21 05:57:33;;;;;;;4.10;0.70;;;21.30;94.00;;;;;;5065384;28;45414;-68
2022/05/21 05:59:59;;;;;;;3.33;0.82;;;21.30;94.30;;;;;;5065675;28;45262;-68
2022/05/21 06:05:15;;;;;;;2.63;1.02;;;21.30;94.40;;;;;;5078285;28;45326;-69
2022/05/21 06:07:43;;;;;;;1.17;0.77;;;21.30;93.90;;;;;;5066202;28;45262;-68
2022/05/21 06:10:11;;;;;;;0.82;0.65;;;21.30;94.00;;;;;;5064013;28;45417;-68
2022/05/21 06:12:38;;;;;;;1.40;0.70;;;21.30;94.10;;;;;;5065975;28;45737;-68
2022/05/21 06:15:06;;;;;;;1.70;0.80;;;21.30;94.00;;;;;;5077927;28;45249;-69
2022/05/21 06:17:33;;;;;;;2.45;0.93;;;21.30;93.90;;;;;;5069341;28;45262;-69
2022/05/21 06:20:00;;;;;;;3.38;0.90;;;21.30;93.90;;;;;;5064900;28;45297;-69
2022/05/21 06:22:28;;;;;;;1.52;0.70;;;21.30;93.90;;;;;;5059822;28;47517;-69
2022/05/21 06:24:55;;;;;;;1.33;0.77;;;21.30;93.80;;;;;;5055305;28;45557;-68
2022/05/21 06:27:22;;;;;;;1.60;0.77;;;21.30;93.90;;;;;;5065782;28;45438;-69
2022/05/21 06:29:48;;;;;;;2.20;0.90;;;21.30;93.80;;;;;;5062923;28;45291;-69
2022/05/21 06:32:15;;;;;;;1.77;0.90;;;21.30;93.60;;;;;;5068583;28;46231;-69
2022/05/21 06:34:42;;;;;;;1.63;0.73;;;21.30;93.80;;;;;;5060415;28;45810;-69
2022/05/21 06:37:11;;;;;;;2.38;1.10;;;21.30;93.70;;;;;;5072786;28;46587;-69
2022/05/21 06:39:42;;;;;;;1.27;0.90;;;21.30;93.70;;;;;;5070024;28;45151;-68
2022/05/21 06:42:09;;;;;;;2.47;0.88;;;21.20;93.70;;;;;;5071167;28;46009;-69
2022/05/21 06:44:36;;;;;;;2.60;0.95;;;21.30;93.60;;;;;;5071657;28;45291;-69
2022/05/21 06:47:04;;;;;;;1.58;0.70;;;21.20;93.50;;;;;;5057823;28;45733;-68
2022/05/21 06:49:31;;;;;;;1.58;0.70;;;21.30;93.60;;;;;;5057162;28;45432;-69
2022/05/21 06:51:59;;;;;;;1.60;0.95;;;21.20;93.70;;;;;;5060080;28;46393;-69
2022/05/21 06:54:27;;;;;;;2.03;0.88;;;21.20;93.50;;;;;;5060732;28;45280;-69
2022/05/21 06:56:55;;;;;;;1.35;0.98;;;21.20;93.40;;;;;;5062031;28;45250;-69
2022/05/21 06:59:22;;;;;;;2.92;1.10;;;21.20;93.40;;;;;;5059770;28;45464;-69
2022/05/21 07:01:48;;;;;;;2.13;0.93;;;21.20;93.40;;;;;;5071549;28;47693;-69
2022/05/21 07:04:15;;;;;;;3.03;0.85;;;21.30;93.30;;;;;;5067392;28;45179;-69
2022/05/21 07:09:27;;;;;;;2.45;0.93;;;21.30;93.30;;;;;;5069660;28;45155;-68
2022/05/21 07:11:56;;;;;;;2.95;1.23;;;21.30;93.20;;;;;;5061986;27;47870;-69
2022/05/21 07:14:22;;;;;;;1.70;0.93;;;21.30;93.00;;;;;;5063860;28;45251;-68
2022/05/21 07:16:50;;;;;;;2.55;1.05;;;21.30;93.10;;;;;;5069347;28;45267;-69
2022/05/21 07:19:17;;;;;;;3.20;1.08;;;21.30;93.20;;;;;;5075813;28;45264;-69
2022/05/21 07:21:43;;;;;;;2.38;0.98;;;21.30;93.10;;;;;;5053457;28;48010;-69
2022/05/21 07:24:10;;;;;;;4.05;1.30;;;21.30;93.00;;;;;;5062692;28;45307;-69
2022/05/21 07:26:37;;;;;;;1.80;1.25;;;21.30;93.00;;;;;;5062222;28;45414;-68
2022/05/21 07:29:06;;;;;;;3.03;1.08;;;21.30;93.00;;;;;;5058661;28;45524;-68
2022/05/21 07:31:33;;;;;;;2.55;0.90;;;21.30;93.00;;;;;;5050369;28;48409;-68
2022/05/21 07:34:00;;;;;;;3.95;1.13;;;21.30;92.90;;;;;;5054173;28;45392;-68
2022/05/21 07:36:27;;;;;;;2.97;1.10;;;21.30;93.00;;;;;;5069629;28;45363;-69
2022/05/21 07:38:53;;;;;;;2.97;1.35;;;21.20;92.90;;;;;;5060521;28;45506;-69
2022/05/21 07:41:21;;;;;;;2.55;1.23;;;21.30;92.90;;;;;;5055844;28;47088;-69
2022/05/21 07:43:48;;;;;;;2.03;1.13;;;21.20;92.90;;;;;;5069519;28;45166;-68
2022/05/21 07:46:16;;;;;;;2.30;1.08;;;21.30;92.90;;;;;;5069975;28;45297;-69
2022/05/21 07:48:43;;;;;;;1.58;1.05;;;21.20;92.60;;;;;;5064998;28;45456;-69
2022/05/21 07:51:10;;;;;;;2.67;1.10;;;21.20;92.50;;;;;;5067493;28;47105;-68
2022/05/21 07:53:40;;;;;;;3.15;1.30;;;21.20;92.50;;;;;;5069480;28;45336;-69
2022/05/21 07:56:10;;;;;;;3.25;1.10;;;21.20;92.50;;;;;;5067785;28;45459;-69
2022/05/21 07:58:38;;;;;;;1.85;1.10;;;21.20;92.40;;;;;;5066981;28;45255;-69
2022/05/21 08:01:05;;;;;;;2.90;1.42;;;21.30;93.10;;;;;;5069790;28;47370;-69
2022/05/21 08:03:33;;;;;;;2.53;1.20;;;21.30;92.50;;;;;;5069527;28;45302;-69
2022/05/21 08:06:00;;;;;;;2.90;1.20;;;21.30;92.40;;;;;;5066696;28;45290;-69
2022/05/21 08:08:27;;;;;;;1.77;1.10;;;21.30;92.20;;;;;;5068575;28;45294;-69
2022/05/21 08:10:54;;;;;;;3.03;1.42;;;21.20;92.20;;;;;;5050421;28;47237;-69
2022/05/21 08:13:21;;;;;;;2.22;1.25;;;21.30;92.20;;;;;;5060211;28;45227;-68
2022/05/21 08:15:47;;;;;;;1.92;1.25;;;21.30;92.40;;;;;;5067147;28;45258;-68
2022/05/21 08:18:15;;;;;;;1.65;1.10;;;21.20;92.20;;;;;;5069075;28;45274;-68
2022/05/21 08:20:43;;;;;;;1.83;1.00;;;21.30;92.30;;;;;;5067709;28;47131;-68
2022/05/21 08:28:45;;;;;;;2.42;1.30;;;21.30;91.80;;;;;;5052795;28;45268;-68
2022/05/21 08:31:12;;;;;;;2.55;1.38;;;21.30;92.10;;;;;;5069136;28;46315;-68
2022/05/21 08:33:39;;;;;;;2.60;1.33;;;21.30;92.10;;;;;;5058511;28;45552;-68
2022/05/21 08:36:07;;;;;;;2.30;1.20;;;21.30;92.10;;;;;;5066190;28;45279;-69
2022/05/21 08:38:34;;;;;;;1.88;1.10;;;21.30;92.20;;;;;;5062378;28;45533;-68
2022/05/21 08:41:06;;;;;;;2.42;1.20;;;21.30;92.20;;;;;;5061502;28;48394;-68
2022/05/21 08:43:50;;;;;;;3.60;1.27;;;21.30;92.10;;;;;;5055015;28;45582;-68
2022/05/21 08:46:31;;;;;;;6.25;1.55;;;21.30;91.90;;;;;;5066503;28;45290;-68
2022/05/21 08:49:03;;;;;;;2.60;1.00;;;21.30;91.80;;;;;;5062754;28;45293;-68
2022/05/21 08:51:37;;;;;;;1.77;1.00;;;21.30;91.80;;;;;;5063202;28;46434;-68
2022/05/21 08:54:05;;;;;;;3.25;1.00;;;21.30;91.60;;;;;;5065455;28;45706;-68
2022/05/21 08:56:32;;;;;;;3.72;1.60;;;21.30;91.60;;;;;;5068052;28;45373;-68
2022/05/21 08:59:04;;;;;;;1.98;1.30;;;21.30;91.50;;;;;;5060113;28;45583;-68
2022/05/21 09:01:34;;;;;;;1.98;1.02;;;21.40;91.50;;;;;;5058089;28;45156;-68
2022/05/21 09:04:01;;;;;;;4.25;1.35;;;21.40;91.40;;;;;;5065559;28;45604;-68
2022/05/21 09:06:35;;;;;;;2.00;1.23;;;21.30;91.40;;;;;;5065361;28;45248;-68
2022/05/21 09:09:08;;;;;;;3.28;1.33;;;21.40;91.40;;;;;;5061201;28;45375;-69
2022/05/21 09:11:40;;;;;;;5.43;1.25;;;21.40;91.30;;;;;;5076605;28;47073;-69
2022/05/21 09:14:14;;;;;;;4.38;1.40;;;21.30;91.00;;;;;;5063763;28;45510;-68
2022/05/21 09:16:55;;;;;;;2.13;1.05;;;21.40;91.10;;;;;;5057297;28;45335;-69
2022/05/21 09:19:24;;;;;;;4.50;1.50;;;21.30;91.00;;;;;;5062954;28;45820;-69
2022/05/21 09:22:00;;;;;;;3.10;1.25;;;21.40;90.90;;;;;;5063524;28;48202;-69
2022/05/21 09:24:35;;;;;;;2.35;1.17;;;21.40;90.60;;;;;;5061811;28;45549;-69
2022/05/21 09:27:02;;;;;;;4.50;1.42;;;21.30;90.40;;;;;;5055608;28;45453;-68
2022/05/21 09:29:33;;;;;;;2.58;1.20;;;21.40;90.40;;;;;;5051113;28;45979;-68
2022/05/21 09:32:15;;;;;;;2.95;1.17;;;21.30;90.40;;;;;;5055145;28;46196;-68
2022/05/21 09:34:42;;;;;;;5.90;2.17;;;21.30;90.30;;;;;;5066520;28;45447;-68
2022/05/21 09:37:16;;;;;;;5.28;2.00;;;21.30;90.20;;;;;;5070552;28;45368;-69
2022/05/21 09:39:44;;;;;;;7.25;2.28;;;21.30;90.00;;;;;;5060972;28;45452;-69
2022/05/21 09:47:43;;;;;;;10.38;3.28;;;21.30;90.10;;;;;;5055987;28;45681;-69
2022/05/21 09:50:11;;;;;;;11.18;2.90;;;21.30;90.00;;;;;;5056031;28;45314;-69
2022/05/21 09:52:40;;;;;;;13.93;3.40;;;21.30;90.00;;;;;;5065144;28;45353;-68
2022/05/21 09:55:21;;;;;;;8.23;2.53;;;21.30;89.90;;;;;;5064339;28;45279;-69
2022/05/21 09:57:48;;;;;;;13.27;3.42;;;21.20;89.60;;;;;;5070720;28;45462;-68
2022/05/21 10:00:22;;;;;;;15.25;4.45;;;21.20;90.20;;;;;;5074212;28;45417;-68
2022/05/21 10:02:51;;;;;;;19.33;4.10;;;21.30;90.50;;;;;;5056597;28;46251;-69
2022/05/21 10:05:24;;;;;;;18.13;3.60;;;21.30;90.40;;;;;;5065051;28;45278;-68
2022/05/21 10:10:59;;;;;;;9.15;3.05;;;21.30;90.30;;;;;;5063381;28;45289;-68
2022/05/21 10:13:27;;;;;;;10.73;2.97;;;21.30;90.30;;;;;;5063887;28;47073;-69
2022/05/21 10:15:58;;;;;;;8.38;2.92;;;21.30;90.40;;;;;;5070510;28;45279;-69
2022/05/21 10:18:30;;;;;;;8.13;2.60;;;21.30;90.40;;;;;;5058833;28;45279;-69
2022/05/21 10:21:03;;;;;;;10.68;2.50;;;21.30;90.40;;;;;;5066562;28;45180;-69
2022/05/21 10:23:40;;;;;;;12.07;3.60;;;21.30;90.40;;;;;;5061513;28;45420;-69
2022/05/21 10:26:19;;;;;;;11.32;2.58;;;21.30;90.30;;;;;;5058445;28;45422;-68
2022/05/21 10:28:58;;;;;;;8.63;2.92;;;21.30;90.20;;;;;;5060568;28;45213;-68
2022/05/21 10:31:46;;;;;;;9.15;2.67;;;21.30;90.30;;;;;;5060833;28;45321;-68
2022/05/21 10:34:34;;;;;;;5.30;2.10;;;21.30;90.30;;;;;;5063593;28;47678;-68
2022/05/21 10:37:14;;;;;;;6.20;2.20;;;21.30;90.30;;;;;;5062065;28;46509;-68
2022/05/21 10:40:10;;;;;;;5.10;2.25;;;21.30;90.40;;;;;;5065135;28;45245;-68
2022/05/21 10:43:00;;;;;;;8.55;2.50;;;21.20;90.10;;;;;;5056842;28;45425;-68
2022/05/21 10:45:33;;;;;;;5.80;2.03;;;21.20;90.20;;;;;;5049928;28;47781;-68
2022/05/21 10:48:33;;;;;;;5.38;2.13;;;21.20;90.10;;;;;;5070344;28;45415;-68
2022/05/21 10:51:07;;;;;;;5.13;2.10;;;21.20;90.00;;;;;;5075936;28;45287;-68
2022/05/21 10:54:05;;;;;;;6.30;1.80;;;21.20;90.10;;;;;;5077510;28;45392;-68
2022/05/21 10:56:45;;;;;;;3.47;1.80;;;21.20;90.20;;;;;;5075993;28;45453;-68
2022/05/21 10:59:26;;;;;;;7.43;2.13;;;21.20;90.10;;;;;;5071675;28;45302;-69
2022/05/21 11:02:04;;;;;;;4.72;1.73;;;21.20;90.20;;;;;;5079247;28;45316;-68
2022/05/21 11:04:59;;;;;;;4.07;1.60;;;21.30;90.20;;;;;;5078003;28;45482;-68
2022/05/21 11:07:41;;;;;;;4.30;1.73;;;21.30;90.10;;;;;;5065719;28;48037;-68
2022/05/21 11:10:17;;;;;;;5.30;1.92;;;21.20;89.90;;;;;;5075461;28;45375;-68
2022/05/21 11:12:52;;;;;;;3.25;1.52;;;21.30;90.00;;;;;;5073171;28;45155;-68
2022/05/21 11:15:32;;;;;;;3.95;1.42;;;21.30;90.00;;;;;;5073525;28;45163;-68
2022/05/21 11:18:05;;;;;;;4.68;1.80;;;21.30;89.80;;;;;;5062797;28;48290;-68
2022/05/21 11:20:35;;;;;;;4.70;1.63;;;21.30;89.90;;;;;;5060724;28;45136;-68
2022/05/21 11:23:07;;;;;;;3.95;2.00;;;21.30;89.70;;;;;;5062799;28;46653;-68
2022/05/21 11:25:40;;;;;;;4.68;1.60;;;21.30;89.60;;;;;;5067352;28;45620;-68
2022/05/21 11:28:24;;;;;;;3.38;1.58;;;21.30;89.50;;;;;;5066835;28;46363;-68
2022/05/21 11:30:56;;;;;;;4.22;1.50;;;21.30;89.80;;;;;;5076212;28;45303;-68
2022/05/21 11:38:58;;;;;;;4.93;1.50;;;21.20;89.60;;;;;;5071700;28;45358;-68
2022/05/21 11:41:59;;;;;;;2.22;1.20;;;21.20;89.40;;;;;;5070822;28;45584;-68
2022/05/21 11:47:50;;;;;;;3.47;1.40;;;21.20;88.20;;;;;;5081528;28;45225;-68
2022/05/21 11:50:26;;;;;;;2.40;1.02;;;21.20;89.10;;;;;;5068905;28;45370;-68
2022/05/21 11:53:25;;;;;;;3.30;1.45;;;21.20;89.10;;;;;;5069989;28;45335;-68
2022/05/21 11:56:10;;;;;;;2.85;1.20;;;21.20;88.90;;;;;;5076979;28;45215;-68
2022/05/21 11:59:17;;;;;;;2.38;1.30;;;21.20;89.10;;;;;;5066714;28;46461;-68
2022/05/21 12:02:10;;;;;;;2.95;1.20;;;21.20;89.50;;;;;;5067795;28;48279;-68
2022/05/21 12:04:59;;;;;;;3.35;1.33;;;21.30;89.10;;;;;;5065086;28;45969;-69
2022/05/21 12:07:49;;;;;;;3.30;1.65;;;21.30;88.70;;;;;;5066858;28;45258;-69
2022/05/21 12:10:21;;;;;;;2.60;1.23;;;21.30;88.40;;;;;;5071379;28;45434;-68
2022/05/21 12:13:10;;;;;;;3.50;1.33;;;21.30;88.50;;;;;;5068483;28;46191;-68
2022/05/21 12:15:39;;;;;;;4.65;1.30;;;21.30;88.10;;;;;;5069681;28;46377;-68
2022/05/21 12:18:09;;;;;;;2.53;1.00;;;21.40;88.30;;;;;;5063399;28;45188;-68
2022/05/21 12:20:45;;;;;;;1.38;0.90;;;21.40;88.20;;;;;;5072552;28;45630;-68
2022/05/21 12:23:14;;;;;;;3.47;1.27;;;21.40;88.10;;;;;;5068840;28;45951;-69
2022/05/21 12:25:59;;;;;;;2.90;1.30;;;21.40;88.20;;;;;;5064603;28;45323;-69
2022/05/21 12:28:36;;;;;;;2.05;1.20;;;21.40;88.00;;;;;;5071627;28;45226;-69
2022/05/21 12:31:09;;;;;;;3.67;1.50;;;21.40;88.00;;;;;;5062536;28;45473;-69
2022/05/21 12:33:45;;;;;;;3.08;1.20;;;21.40;88.00;;;;;;5059210;28;45309;-69
2022/05/21 12:36:42;;;;;;;1.30;0.90;;;21.40;87.90;;;;;;5057488;28;45219;-69
2022/05/21 12:39:14;;;;;;;2.67;1.05;;;21.40;87.60;;;;;;5056236;28;45352;-69
2022/05/21 12:41:45;;;;;;;3.83;1.25;;;21.40;87.60;;;;;;5061784;28;45183;-69
2022/05/21 12:44:12;;;;;;;3.42;1.17;;;21.30;87.40;;;;;;5067439;28;45491;-69
2022/05/21 12:46:51;;;;;;;3.63;1.13;;;21.40;87.30;;;;;;5067533;28;45590;-69
2022/05/21 12:49:19;;;;;;;3.45;1.67;;;21.30;86.80;;;;;;5048507;28;45237;-69
2022/05/21 12:51:50;;;;;;;2.53;1.02;;;21.40;87.30;;;;;;5068946;28;45217;-69
2022/05/21 12:54:22;;;;;;;1.98;0.98;;;21.40;87.20;;;;;;5069195;28;45990;-69
2022/05/21 12:56:50;;;;;;;2.92;1.20;;;21.40;87.10;;;;;;5067081;28;45184;-69
2022/05/21 12:59:19;;;;;;;2.03;1.02;;;21.40;87.30;;;;;;5067318;28;45247;-69
2022/05/21 13:01:57;;;;;;;3.00;1.00;;;21.40;87.50;;;;;;5069354;28;45173;-69
2022/05/21 13:04:30;;;;;;;3.15;1.13;;;21.40;87.30;;;;;;5067168;28;47450;-69
2022/05/21 13:07:03;;;;;;;2.28;1.02;;;21.40;87.30;;;;;;5067224;28;45291;-69
2022/05/21 13:09:31;;;;;;;1.73;1.10;;;21.40;87.10;;;;;;5067057;28;45319;-68
2022/05/21 13:11:58;;;;;;;2.03;1.30;;;21.40;87.20;;;;;;5068645;28;45356;-69
2022/05/21 13:14:31;;;;;;;1.77;1.00;;;21.40;87.10;;;;;;5067220;28;45471;-69
2022/05/21 13:16:59;;;;;;;1.95;1.17;;;21.40;87.00;;;;;;5067348;28;45330;-68
2022/05/21 13:19:54;;;;;;;1.73;1.20;;;21.40;86.70;;;;;;5067468;28;45305;-69
2022/05/21 13:22:31;;;;;;;2.10;0.90;;;21.40;86.60;;;;;;5067449;28;45268;-69
2022/05/21 13:25:02;;;;;;;1.90;1.15;;;21.40;86.70;;;;;;5068174;28;46188;-68
2022/05/21 13:27:29;;;;;;;2.75;1.20;;;21.40;86.50;;;;;;5068537;28;45379;-68
2022/05/21 13:29:56;;;;;;;2.15;1.00;;;21.40;86.80;;;;;;5067650;28;45152;-69
2022/05/21 13:32:26;;;;;;;1.15;0.80;;;21.40;86.90;;;;;;5067325;28;45448;-69
2022/05/21 13:34:55;;;;;;;3.05;0.70;;;21.40;86.60;;;;;;5066576;28;47002;-69
2022/05/21 13:37:30;;;;;;;1.83;0.98;;;21.40;86.50;;;;;;5068343;28;45408;-69
2022/05/21 13:40:01;;;;;;;1.42;0.80;;;21.40;86.20;;;;;;5066299;28;45379;-69
2022/05/21 13:42:29;;;;;;;2.42;0.93;;;21.40;86.20;;;;;;5053463;28;45215;-69
2022/05/21 13:45:04;;;;;;;1.20;0.90;;;21.40;86.30;;;;;;5061706;28;45703;-69
2022/05/21 13:47:34;;;;;;;1.98;0.90;;;21.40;86.10;;;;;;5067444;28;45398;-69